sensor_id;sensor_type;location;lat;lon;timestamp;P1;durP1;ratioP1;P2;durP2;ratioP2
5323;SDS011;2684;48.154;11.538;2022-07-25T00:01:09;20.40;;;18.33;;
5323;SDS011;2684;48.154;11.538;2022-07-25T00:03:37;20.60;;;18.60;;
5323;SDS011;2684;48.154;11.538;2022-07-25T00:06:05;20.80;;;18.63;;
5323;SDS011;2684;48.154;11.538;2022-07-25T00:08:33;20.50;;;18.30;;
5323;SDS011;2684;48.154;11.538;2022-07-25T00:11:03;20.53;;;18.53;;
5323;SDS011;2684;48.154;11.538;2022-07-25T00:13:31;20.43;;;18.43;;
5323;SDS011;2684;48.154;11.538;2022-07-25T00:15:58;20.43;;;18.37;;
5323;SDS011;2684;48.154;11.538;2022-07-25T00:18:25;20.57;;;18.43;;
5323;SDS011;2684;48.154;11.538;2022-07-25T00:20:52;20.40;;;18.20;;
5323;SDS011;2684;48.154;11.538;2022-07-25T00:23:19;23.00;;;19.00;;
5323;SDS011;2684;48.154;11.538;2022-07-25T00:25:46;20.53;;;18.33;;
5323;SDS011;2684;48.154;11.538;2022-07-25T00:28:15;20.13;;;18.10;;
5323;SDS011;2684;48.154;11.538;2022-07-25T00:30:43;22.27;;;18.37;;
5323;SDS011;2684;48.154;11.538;2022-07-25T00:33:10;21.93;;;19.20;;
5323;SDS011;2684;48.154;11.538;2022-07-25T00:35:37;21.63;;;19.10;;
5323;SDS011;2684;48.154;11.538;2022-07-25T00:38:04;20.27;;;18.37;;
5323;SDS011;2684;48.154;11.538;2022-07-25T00:40:31;20.67;;;18.47;;
5323;SDS011;2684;48.154;11.538;2022-07-25T00:42:59;20.80;;;18.70;;
5323;SDS011;2684;48.154;11.538;2022-07-25T00:45:27;21.13;;;18.93;;
5323;SDS011;2684;48.154;11.538;2022-07-25T00:47:54;21.40;;;19.10;;
5323;SDS011;2684;48.154;11.538;2022-07-25T00:50:21;21.23;;;18.97;;
5323;SDS011;2684;48.154;11.538;2022-07-25T00:52:48;21.07;;;18.90;;
5323;SDS011;2684;48.154;11.538;2022-07-25T00:55:15;21.60;;;19.40;;
5323;SDS011;2684;48.154;11.538;2022-07-25T00:57:42;21.27;;;19.00;;
5323;SDS011;2684;48.154;11.538;2022-07-25T01:00:11;21.80;;;19.60;;
5323;SDS011;2684;48.154;11.538;2022-07-25T01:02:41;23.30;;;19.47;;
5323;SDS011;2684;48.154;11.538;2022-07-25T01:05:08;21.07;;;18.87;;
5323;SDS011;2684;48.154;11.538;2022-07-25T01:07:36;25.37;;;19.93;;
5323;SDS011;2684;48.154;11.538;2022-07-25T01:10:04;22.90;;;19.67;;
5323;SDS011;2684;48.154;11.538;2022-07-25T01:12:42;23.07;;;18.87;;
5323;SDS011;2684;48.154;11.538;2022-07-25T01:15:10;22.03;;;19.73;;
5323;SDS011;2684;48.154;11.538;2022-07-25T01:17:37;22.97;;;20.47;;
5323;SDS011;2684;48.154;11.538;2022-07-25T01:22:41;21.07;;;18.30;;
5323;SDS011;2684;48.154;11.538;2022-07-25T01:25:09;26.20;;;20.03;;
5323;SDS011;2684;48.154;11.538;2022-07-25T01:27:37;21.80;;;19.50;;
5323;SDS011;2684;48.154;11.538;2022-07-25T01:30:05;22.03;;;19.50;;
5323;SDS011;2684;48.154;11.538;2022-07-25T01:32:34;21.80;;;19.53;;
5323;SDS011;2684;48.154;11.538;2022-07-25T01:35:01;21.70;;;19.37;;
5323;SDS011;2684;48.154;11.538;2022-07-25T01:37:31;22.43;;;20.00;;
5323;SDS011;2684;48.154;11.538;2022-07-25T01:39:58;29.90;;;19.80;;
5323;SDS011;2684;48.154;11.538;2022-07-25T01:42:25;23.90;;;20.03;;
5323;SDS011;2684;48.154;11.538;2022-07-25T01:44:52;21.43;;;19.17;;
5323;SDS011;2684;48.154;11.538;2022-07-25T01:47:20;22.93;;;19.70;;
5323;SDS011;2684;48.154;11.538;2022-07-25T01:49:46;22.60;;;20.00;;
5323;SDS011;2684;48.154;11.538;2022-07-25T01:52:14;22.40;;;19.83;;
5323;SDS011;2684;48.154;11.538;2022-07-25T01:54:43;27.20;;;20.47;;
5323;SDS011;2684;48.154;11.538;2022-07-25T01:57:10;24.10;;;20.33;;
5323;SDS011;2684;48.154;11.538;2022-07-25T01:59:37;23.00;;;19.70;;
5323;SDS011;2684;48.154;11.538;2022-07-25T02:02:05;21.27;;;18.97;;
5323;SDS011;2684;48.154;11.538;2022-07-25T02:04:33;23.43;;;19.70;;
5323;SDS011;2684;48.154;11.538;2022-07-25T02:07:00;22.97;;;19.80;;
5323;SDS011;2684;48.154;11.538;2022-07-25T02:09:28;25.10;;;21.03;;
5323;SDS011;2684;48.154;11.538;2022-07-25T02:11:56;26.10;;;20.07;;
5323;SDS011;2684;48.154;11.538;2022-07-25T02:14:29;22.73;;;20.00;;
5323;SDS011;2684;48.154;11.538;2022-07-25T02:16:59;23.83;;;19.97;;
5323;SDS011;2684;48.154;11.538;2022-07-25T02:19:26;25.07;;;20.33;;
5323;SDS011;2684;48.154;11.538;2022-07-25T02:21:53;27.97;;;19.97;;
5323;SDS011;2684;48.154;11.538;2022-07-25T02:24:20;21.70;;;19.40;;
5323;SDS011;2684;48.154;11.538;2022-07-25T02:26:48;23.07;;;19.57;;
5323;SDS011;2684;48.154;11.538;2022-07-25T02:29:17;22.77;;;20.30;;
5323;SDS011;2684;48.154;11.538;2022-07-25T02:31:44;22.23;;;19.83;;
5323;SDS011;2684;48.154;11.538;2022-07-25T02:34:13;21.70;;;19.40;;
5323;SDS011;2684;48.154;11.538;2022-07-25T02:36:44;22.93;;;19.90;;
5323;SDS011;2684;48.154;11.538;2022-07-25T02:39:11;22.33;;;19.90;;
5323;SDS011;2684;48.154;11.538;2022-07-25T02:41:38;21.73;;;19.43;;
5323;SDS011;2684;48.154;11.538;2022-07-25T02:44:05;23.07;;;20.30;;
5323;SDS011;2684;48.154;11.538;2022-07-25T02:46:34;22.20;;;19.80;;
5323;SDS011;2684;48.154;11.538;2022-07-25T02:49:01;22.17;;;19.77;;
5323;SDS011;2684;48.154;11.538;2022-07-25T02:51:29;22.43;;;20.07;;
5323;SDS011;2684;48.154;11.538;2022-07-25T02:53:56;27.50;;;19.70;;
5323;SDS011;2684;48.154;11.538;2022-07-25T02:56:23;22.43;;;19.20;;
5323;SDS011;2684;48.154;11.538;2022-07-25T02:58:51;25.10;;;20.90;;
5323;SDS011;2684;48.154;11.538;2022-07-25T03:01:18;23.37;;;20.03;;
5323;SDS011;2684;48.154;11.538;2022-07-25T03:03:46;23.07;;;20.50;;
5323;SDS011;2684;48.154;11.538;2022-07-25T03:06:13;23.17;;;19.97;;
5323;SDS011;2684;48.154;11.538;2022-07-25T03:08:41;31.70;;;20.67;;
5323;SDS011;2684;48.154;11.538;2022-07-25T03:11:08;25.27;;;21.10;;
5323;SDS011;2684;48.154;11.538;2022-07-25T03:13:36;22.20;;;19.80;;
5323;SDS011;2684;48.154;11.538;2022-07-25T03:16:03;22.53;;;20.23;;
5323;SDS011;2684;48.154;11.538;2022-07-25T03:18:30;24.47;;;21.07;;
5323;SDS011;2684;48.154;11.538;2022-07-25T03:20:59;22.93;;;20.40;;
5323;SDS011;2684;48.154;11.538;2022-07-25T03:23:27;26.60;;;21.47;;
5323;SDS011;2684;48.154;11.538;2022-07-25T03:25:55;24.97;;;20.77;;
5323;SDS011;2684;48.154;11.538;2022-07-25T03:28:22;25.20;;;21.70;;
5323;SDS011;2684;48.154;11.538;2022-07-25T03:30:49;28.57;;;21.40;;
5323;SDS011;2684;48.154;11.538;2022-07-25T03:33:16;24.63;;;20.80;;
5323;SDS011;2684;48.154;11.538;2022-07-25T03:35:44;24.20;;;20.77;;
5323;SDS011;2684;48.154;11.538;2022-07-25T03:38:12;24.50;;;19.90;;
5323;SDS011;2684;48.154;11.538;2022-07-25T03:40:40;24.27;;;20.10;;
5323;SDS011;2684;48.154;11.538;2022-07-25T03:43:07;26.37;;;21.17;;
5323;SDS011;2684;48.154;11.538;2022-07-25T03:45:34;25.83;;;21.60;;
5323;SDS011;2684;48.154;11.538;2022-07-25T03:48:03;24.93;;;20.77;;
5323;SDS011;2684;48.154;11.538;2022-07-25T03:50:30;25.00;;;21.03;;
5323;SDS011;2684;48.154;11.538;2022-07-25T03:52:57;23.67;;;20.80;;
5323;SDS011;2684;48.154;11.538;2022-07-25T03:55:26;25.90;;;21.77;;
5323;SDS011;2684;48.154;11.538;2022-07-25T03:57:53;24.63;;;21.10;;
5323;SDS011;2684;48.154;11.538;2022-07-25T04:00:20;28.13;;;21.53;;
5323;SDS011;2684;48.154;11.538;2022-07-25T04:02:47;28.13;;;21.47;;
5323;SDS011;2684;48.154;11.538;2022-07-25T04:05:14;26.10;;;22.73;;
5323;SDS011;2684;48.154;11.538;2022-07-25T04:07:41;24.73;;;21.53;;
5323;SDS011;2684;48.154;11.538;2022-07-25T04:10:08;29.60;;;22.43;;
5323;SDS011;2684;48.154;11.538;2022-07-25T04:12:38;24.37;;;21.60;;
5323;SDS011;2684;48.154;11.538;2022-07-25T04:15:05;25.27;;;21.40;;
5323;SDS011;2684;48.154;11.538;2022-07-25T04:17:33;25.83;;;21.67;;
5323;SDS011;2684;48.154;11.538;2022-07-25T04:20:00;24.43;;;21.03;;
5323;SDS011;2684;48.154;11.538;2022-07-25T04:22:27;25.50;;;21.73;;
5323;SDS011;2684;48.154;11.538;2022-07-25T04:24:54;26.20;;;20.40;;
5323;SDS011;2684;48.154;11.538;2022-07-25T04:27:21;26.60;;;21.30;;
5323;SDS011;2684;48.154;11.538;2022-07-25T04:29:50;27.67;;;21.80;;
5323;SDS011;2684;48.154;11.538;2022-07-25T04:32:18;27.33;;;21.27;;
5323;SDS011;2684;48.154;11.538;2022-07-25T04:34:45;24.77;;;20.57;;
5323;SDS011;2684;48.154;11.538;2022-07-25T04:37:12;25.47;;;21.30;;
5323;SDS011;2684;48.154;11.538;2022-07-25T04:39:39;24.83;;;20.10;;
5323;SDS011;2684;48.154;11.538;2022-07-25T04:42:06;23.60;;;21.10;;
5323;SDS011;2684;48.154;11.538;2022-07-25T04:44:33;24.43;;;21.00;;
5323;SDS011;2684;48.154;11.538;2022-07-25T04:47:02;26.30;;;20.53;;
5323;SDS011;2684;48.154;11.538;2022-07-25T04:49:31;24.90;;;20.83;;
5323;SDS011;2684;48.154;11.538;2022-07-25T04:51:59;23.47;;;20.60;;
5323;SDS011;2684;48.154;11.538;2022-07-25T04:57:07;25.00;;;21.10;;
5323;SDS011;2684;48.154;11.538;2022-07-25T05:11:23;27.40;;;22.53;;
5323;SDS011;2684;48.154;11.538;2022-07-25T05:13:51;25.90;;;22.30;;
5323;SDS011;2684;48.154;11.538;2022-07-25T05:16:20;24.10;;;21.30;;
5323;SDS011;2684;48.154;11.538;2022-07-25T05:19:01;25.60;;;21.30;;
5323;SDS011;2684;48.154;11.538;2022-07-25T05:21:53;24.53;;;20.90;;
5323;SDS011;2684;48.154;11.538;2022-07-25T05:24:20;24.03;;;21.40;;
5323;SDS011;2684;48.154;11.538;2022-07-25T05:26:51;27.03;;;20.80;;
5323;SDS011;2684;48.154;11.538;2022-07-25T05:29:20;26.20;;;21.57;;
5323;SDS011;2684;48.154;11.538;2022-07-25T05:31:57;25.50;;;21.53;;
5323;SDS011;2684;48.154;11.538;2022-07-25T05:34:26;24.70;;;20.53;;
5323;SDS011;2684;48.154;11.538;2022-07-25T05:37:07;24.63;;;21.30;;
5323;SDS011;2684;48.154;11.538;2022-07-25T05:39:37;24.70;;;20.40;;
5323;SDS011;2684;48.154;11.538;2022-07-25T05:48:00;22.40;;;19.97;;
5323;SDS011;2684;48.154;11.538;2022-07-25T05:50:30;30.53;;;21.40;;
5323;SDS011;2684;48.154;11.538;2022-07-25T05:53:12;23.90;;;21.30;;
5323;SDS011;2684;48.154;11.538;2022-07-25T05:55:40;30.60;;;21.33;;
5323;SDS011;2684;48.154;11.538;2022-07-25T05:58:12;24.03;;;20.63;;
5323;SDS011;2684;48.154;11.538;2022-07-25T06:00:55;26.23;;;21.10;;
5323;SDS011;2684;48.154;11.538;2022-07-25T06:03:31;29.13;;;21.70;;
5323;SDS011;2684;48.154;11.538;2022-07-25T06:05:59;24.57;;;21.00;;
5323;SDS011;2684;48.154;11.538;2022-07-25T06:08:48;32.00;;;21.20;;
5323;SDS011;2684;48.154;11.538;2022-07-25T06:11:20;23.87;;;20.87;;
5323;SDS011;2684;48.154;11.538;2022-07-25T06:13:51;22.70;;;20.30;;
5323;SDS011;2684;48.154;11.538;2022-07-25T06:17:11;22.87;;;20.47;;
5323;SDS011;2684;48.154;11.538;2022-07-25T06:22:15;22.90;;;20.50;;
5323;SDS011;2684;48.154;11.538;2022-07-25T06:24:44;27.23;;;23.67;;
5323;SDS011;2684;48.154;11.538;2022-07-25T06:27:12;24.40;;;20.80;;
5323;SDS011;2684;48.154;11.538;2022-07-25T06:29:39;24.27;;;21.13;;
5323;SDS011;2684;48.154;11.538;2022-07-25T06:32:07;31.53;;;21.40;;
5323;SDS011;2684;48.154;11.538;2022-07-25T06:34:39;24.10;;;21.50;;
5323;SDS011;2684;48.154;11.538;2022-07-25T07:41:59;22.83;;;20.43;;
5323;SDS011;2684;48.154;11.538;2022-07-25T07:44:26;23.83;;;20.60;;
5323;SDS011;2684;48.154;11.538;2022-07-25T07:46:55;22.23;;;19.93;;
5323;SDS011;2684;48.154;11.538;2022-07-25T07:49:36;23.20;;;20.70;;
5323;SDS011;2684;48.154;11.538;2022-07-25T07:52:04;22.77;;;20.13;;
5323;SDS011;2684;48.154;11.538;2022-07-25T07:54:45;24.93;;;19.40;;
5323;SDS011;2684;48.154;11.538;2022-07-25T07:57:32;23.63;;;21.13;;
5323;SDS011;2684;48.154;11.538;2022-07-25T08:00:01;22.90;;;20.70;;
5323;SDS011;2684;48.154;11.538;2022-07-25T08:02:30;22.80;;;20.53;;
5323;SDS011;2684;48.154;11.538;2022-07-25T08:05:01;22.00;;;19.70;;
5323;SDS011;2684;48.154;11.538;2022-07-25T08:07:32;21.97;;;19.77;;
5323;SDS011;2684;48.154;11.538;2022-07-25T08:09:59;22.53;;;20.33;;
5323;SDS011;2684;48.154;11.538;2022-07-25T08:12:27;22.57;;;20.17;;
5323;SDS011;2684;48.154;11.538;2022-07-25T08:14:56;22.30;;;20.03;;
5323;SDS011;2684;48.154;11.538;2022-07-25T08:17:24;22.50;;;20.10;;
5323;SDS011;2684;48.154;11.538;2022-07-25T08:20:08;22.60;;;20.30;;
5323;SDS011;2684;48.154;11.538;2022-07-25T08:22:40;22.20;;;19.60;;
5323;SDS011;2684;48.154;11.538;2022-07-25T08:25:12;22.17;;;20.07;;
5323;SDS011;2684;48.154;11.538;2022-07-25T08:27:46;21.77;;;19.67;;
5323;SDS011;2684;48.154;11.538;2022-07-25T08:30:32;22.90;;;20.60;;
5323;SDS011;2684;48.154;11.538;2022-07-25T08:33:04;23.43;;;20.10;;
5323;SDS011;2684;48.154;11.538;2022-07-25T08:35:34;21.67;;;19.50;;
5323;SDS011;2684;48.154;11.538;2022-07-25T08:38:04;23.03;;;20.70;;
5323;SDS011;2684;48.154;11.538;2022-07-25T08:40:33;21.83;;;19.60;;
5323;SDS011;2684;48.154;11.538;2022-07-25T08:43:01;22.17;;;19.87;;
5323;SDS011;2684;48.154;11.538;2022-07-25T08:45:33;22.27;;;19.63;;
5323;SDS011;2684;48.154;11.538;2022-07-25T08:48:02;22.13;;;19.93;;
5323;SDS011;2684;48.154;11.538;2022-07-25T08:50:30;21.60;;;19.60;;
5323;SDS011;2684;48.154;11.538;2022-07-25T08:52:57;21.63;;;19.43;;
5323;SDS011;2684;48.154;11.538;2022-07-25T08:55:24;23.10;;;20.70;;
5323;SDS011;2684;48.154;11.538;2022-07-25T08:57:53;22.17;;;19.80;;
5323;SDS011;2684;48.154;11.538;2022-07-25T09:00:20;21.67;;;19.70;;
5323;SDS011;2684;48.154;11.538;2022-07-25T09:02:54;21.27;;;19.27;;
5323;SDS011;2684;48.154;11.538;2022-07-25T09:05:22;21.90;;;19.80;;
5323;SDS011;2684;48.154;11.538;2022-07-25T09:07:51;21.60;;;19.50;;
5323;SDS011;2684;48.154;11.538;2022-07-25T09:10:21;21.10;;;19.20;;
5323;SDS011;2684;48.154;11.538;2022-07-25T09:12:52;22.17;;;19.90;;
5323;SDS011;2684;48.154;11.538;2022-07-25T09:15:24;22.40;;;20.20;;
5323;SDS011;2684;48.154;11.538;2022-07-25T09:17:55;19.73;;;17.93;;
5323;SDS011;2684;48.154;11.538;2022-07-25T09:20:34;20.60;;;18.70;;
5323;SDS011;2684;48.154;11.538;2022-07-25T09:23:02;21.00;;;19.00;;
5323;SDS011;2684;48.154;11.538;2022-07-25T09:25:29;21.33;;;19.20;;
5323;SDS011;2684;48.154;11.538;2022-07-25T09:28:09;20.77;;;18.67;;
5323;SDS011;2684;48.154;11.538;2022-07-25T09:30:38;21.40;;;19.30;;
5323;SDS011;2684;48.154;11.538;2022-07-25T09:33:12;22.40;;;20.20;;
5323;SDS011;2684;48.154;11.538;2022-07-25T09:35:40;21.07;;;19.10;;
5323;SDS011;2684;48.154;11.538;2022-07-25T09:38:08;21.57;;;19.47;;
5323;SDS011;2684;48.154;11.538;2022-07-25T09:40:36;20.70;;;18.80;;
5323;SDS011;2684;48.154;11.538;2022-07-25T09:43:04;20.80;;;18.70;;
5323;SDS011;2684;48.154;11.538;2022-07-25T09:45:33;19.83;;;17.93;;
5323;SDS011;2684;48.154;11.538;2022-07-25T09:48:03;20.43;;;18.20;;
5323;SDS011;2684;48.154;11.538;2022-07-25T09:50:33;20.63;;;18.83;;
5323;SDS011;2684;48.154;11.538;2022-07-25T09:53:01;21.47;;;19.37;;
5323;SDS011;2684;48.154;11.538;2022-07-25T09:55:34;21.23;;;19.17;;
5323;SDS011;2684;48.154;11.538;2022-07-25T09:58:02;20.77;;;18.77;;
5323;SDS011;2684;48.154;11.538;2022-07-25T10:00:31;19.97;;;17.87;;
5323;SDS011;2684;48.154;11.538;2022-07-25T10:03:15;19.83;;;18.03;;
5323;SDS011;2684;48.154;11.538;2022-07-25T10:08:33;20.83;;;18.77;;
5323;SDS011;2684;48.154;11.538;2022-07-25T10:11:03;20.83;;;18.90;;
5323;SDS011;2684;48.154;11.538;2022-07-25T10:13:39;21.30;;;19.30;;
5323;SDS011;2684;48.154;11.538;2022-07-25T10:16:13;21.00;;;18.93;;
5323;SDS011;2684;48.154;11.538;2022-07-25T10:18:47;19.73;;;17.90;;
5323;SDS011;2684;48.154;11.538;2022-07-25T10:21:17;23.57;;;18.37;;
5323;SDS011;2684;48.154;11.538;2022-07-25T10:23:55;20.00;;;18.20;;
5323;SDS011;2684;48.154;11.538;2022-07-25T10:37:26;19.40;;;17.60;;
5323;SDS011;2684;48.154;11.538;2022-07-25T10:39:58;18.97;;;17.20;;
5323;SDS011;2684;48.154;11.538;2022-07-25T10:42:26;18.50;;;16.90;;
5323;SDS011;2684;48.154;11.538;2022-07-25T10:45:00;19.40;;;17.60;;
5323;SDS011;2684;48.154;11.538;2022-07-25T10:47:30;19.10;;;17.50;;
5323;SDS011;2684;48.154;11.538;2022-07-25T10:50:02;19.70;;;18.00;;
5323;SDS011;2684;48.154;11.538;2022-07-25T10:58:39;19.23;;;17.43;;
5323;SDS011;2684;48.154;11.538;2022-07-25T11:01:13;20.27;;;18.30;;
5323;SDS011;2684;48.154;11.538;2022-07-25T11:03:46;18.43;;;16.83;;
5323;SDS011;2684;48.154;11.538;2022-07-25T11:06:13;18.20;;;16.70;;
5323;SDS011;2684;48.154;11.538;2022-07-25T11:08:43;18.77;;;17.17;;
5323;SDS011;2684;48.154;11.538;2022-07-25T11:11:12;17.40;;;15.93;;
5323;SDS011;2684;48.154;11.538;2022-07-25T11:13:41;17.90;;;16.17;;
5323;SDS011;2684;48.154;11.538;2022-07-25T11:16:09;17.80;;;16.30;;
5323;SDS011;2684;48.154;11.538;2022-07-25T11:21:13;17.10;;;15.60;;
5323;SDS011;2684;48.154;11.538;2022-07-25T11:26:31;19.37;;;16.40;;
5323;SDS011;2684;48.154;11.538;2022-07-25T11:28:58;17.60;;;15.90;;
5323;SDS011;2684;48.154;11.538;2022-07-25T11:31:25;17.70;;;16.20;;
5323;SDS011;2684;48.154;11.538;2022-07-25T11:36:45;17.30;;;15.80;;
5323;SDS011;2684;48.154;11.538;2022-07-25T11:39:14;16.70;;;15.40;;
5323;SDS011;2684;48.154;11.538;2022-07-25T11:45:21;16.80;;;15.50;;
5323;SDS011;2684;48.154;11.538;2022-07-25T11:48:12;17.73;;;16.20;;
5323;SDS011;2684;48.154;11.538;2022-07-25T11:54:31;16.88;;;15.55;;
5323;SDS011;2684;48.154;11.538;2022-07-25T12:00:23;17.15;;;15.65;;
5323;SDS011;2684;48.154;11.538;2022-07-25T12:03:05;16.58;;;15.18;;
5323;SDS011;2684;48.154;11.538;2022-07-25T12:06:05;16.40;;;15.05;;
5323;SDS011;2684;48.154;11.538;2022-07-25T12:08:56;16.25;;;15.05;;
5323;SDS011;2684;48.154;11.538;2022-07-25T12:11:26;16.40;;;15.10;;
5323;SDS011;2684;48.154;11.538;2022-07-25T12:14:03;17.17;;;15.52;;
5323;SDS011;2684;48.154;11.538;2022-07-25T12:16:35;16.42;;;15.13;;
5323;SDS011;2684;48.154;11.538;2022-07-25T12:19:21;16.67;;;15.13;;
5323;SDS011;2684;48.154;11.538;2022-07-25T12:21:53;16.77;;;15.48;;
5323;SDS011;2684;48.154;11.538;2022-07-25T12:24:26;19.52;;;15.70;;
5323;SDS011;2684;48.154;11.538;2022-07-25T12:27:00;17.02;;;15.63;;
5323;SDS011;2684;48.154;11.538;2022-07-25T12:29:29;16.13;;;14.82;;
5323;SDS011;2684;48.154;11.538;2022-07-25T12:32:06;16.60;;;15.30;;
5323;SDS011;2684;48.154;11.538;2022-07-25T12:34:35;16.20;;;15.00;;
5323;SDS011;2684;48.154;11.538;2022-07-25T12:40:07;15.52;;;14.23;;
5323;SDS011;2684;48.154;11.538;2022-07-25T12:48:13;15.18;;;14.02;;
5323;SDS011;2684;48.154;11.538;2022-07-25T12:50:42;15.95;;;14.80;;
5323;SDS011;2684;48.154;11.538;2022-07-25T12:53:25;15.63;;;14.35;;
5323;SDS011;2684;48.154;11.538;2022-07-25T12:55:54;15.48;;;14.20;;
5323;SDS011;2684;48.154;11.538;2022-07-25T12:58:24;15.65;;;14.45;;
5323;SDS011;2684;48.154;11.538;2022-07-25T13:00:53;15.07;;;13.98;;
5323;SDS011;2684;48.154;11.538;2022-07-25T13:03:20;14.82;;;13.82;;
5323;SDS011;2684;48.154;11.538;2022-07-25T13:05:51;15.30;;;14.20;;
5323;SDS011;2684;48.154;11.538;2022-07-25T13:08:35;15.13;;;13.93;;
5323;SDS011;2684;48.154;11.538;2022-07-25T13:11:07;14.90;;;13.90;;
5323;SDS011;2684;48.154;11.538;2022-07-25T13:13:43;16.05;;;14.63;;
5323;SDS011;2684;48.154;11.538;2022-07-25T13:16:24;15.35;;;14.30;;
5323;SDS011;2684;48.154;11.538;2022-07-25T13:18:52;14.20;;;13.30;;
5323;SDS011;2684;48.154;11.538;2022-07-25T13:21:19;14.45;;;13.52;;
5323;SDS011;2684;48.154;11.538;2022-07-25T13:23:49;14.52;;;13.52;;
5323;SDS011;2684;48.154;11.538;2022-07-25T13:26:24;14.82;;;13.88;;
5323;SDS011;2684;48.154;11.538;2022-07-25T13:28:52;14.60;;;13.63;;
5323;SDS011;2684;48.154;11.538;2022-07-25T13:31:24;14.90;;;13.85;;
5323;SDS011;2684;48.154;11.538;2022-07-25T13:33:52;14.20;;;13.30;;
5323;SDS011;2684;48.154;11.538;2022-07-25T13:36:26;13.63;;;12.80;;
5323;SDS011;2684;48.154;11.538;2022-07-25T13:38:57;13.98;;;13.07;;
5323;SDS011;2684;48.154;11.538;2022-07-25T13:41:33;14.43;;;13.50;;
5323;SDS011;2684;48.154;11.538;2022-07-25T13:44:03;14.00;;;13.00;;
5323;SDS011;2684;48.154;11.538;2022-07-25T13:46:34;14.55;;;13.55;;
5323;SDS011;2684;48.154;11.538;2022-07-25T13:49:04;14.57;;;13.57;;
5323;SDS011;2684;48.154;11.538;2022-07-25T13:51:46;14.45;;;13.40;;
5323;SDS011;2684;48.154;11.538;2022-07-25T13:54:14;13.23;;;12.43;;
5323;SDS011;2684;48.154;11.538;2022-07-25T13:56:51;14.38;;;13.38;;
5323;SDS011;2684;48.154;11.538;2022-07-25T13:59:19;14.95;;;13.85;;
5323;SDS011;2684;48.154;11.538;2022-07-25T14:01:50;14.75;;;13.75;;
5323;SDS011;2684;48.154;11.538;2022-07-25T14:04:23;15.27;;;14.07;;
5323;SDS011;2684;48.154;11.538;2022-07-25T14:06:51;14.38;;;13.48;;
5323;SDS011;2684;48.154;11.538;2022-07-25T14:09:18;14.73;;;13.68;;
5323;SDS011;2684;48.154;11.538;2022-07-25T14:11:48;14.10;;;13.20;;
5323;SDS011;2684;48.154;11.538;2022-07-25T14:14:19;14.38;;;13.13;;
5323;SDS011;2684;48.154;11.538;2022-07-25T14:16:48;13.25;;;12.43;;
5323;SDS011;2684;48.154;11.538;2022-07-25T14:19:16;13.95;;;13.05;;
5323;SDS011;2684;48.154;11.538;2022-07-25T14:21:44;13.93;;;13.05;;
5323;SDS011;2684;48.154;11.538;2022-07-25T14:24:12;13.68;;;12.73;;
5323;SDS011;2684;48.154;11.538;2022-07-25T14:26:40;13.82;;;12.93;;
5323;SDS011;2684;48.154;11.538;2022-07-25T14:29:10;13.63;;;12.60;;
5323;SDS011;2684;48.154;11.538;2022-07-25T14:31:40;14.25;;;13.32;;
5323;SDS011;2684;48.154;11.538;2022-07-25T14:34:10;13.57;;;12.43;;
5323;SDS011;2684;48.154;11.538;2022-07-25T14:36:39;13.20;;;12.40;;
5323;SDS011;2684;48.154;11.538;2022-07-25T14:39:09;13.55;;;12.70;;
5323;SDS011;2684;48.154;11.538;2022-07-25T14:41:37;13.13;;;12.32;;
5323;SDS011;2684;48.154;11.538;2022-07-25T14:44:04;13.23;;;12.43;;
5323;SDS011;2684;48.154;11.538;2022-07-25T14:47:07;13.40;;;12.50;;
5323;SDS011;2684;48.154;11.538;2022-07-25T14:49:34;14.25;;;12.88;;
5323;SDS011;2684;48.154;11.538;2022-07-25T14:52:03;13.63;;;12.52;;
5323;SDS011;2684;48.154;11.538;2022-07-25T14:54:32;14.18;;;13.18;;
5323;SDS011;2684;48.154;11.538;2022-07-25T14:57:01;13.10;;;12.30;;
5323;SDS011;2684;48.154;11.538;2022-07-25T15:02:15;14.02;;;13.13;;
5323;SDS011;2684;48.154;11.538;2022-07-25T15:04:44;14.07;;;12.63;;
5323;SDS011;2684;48.154;11.538;2022-07-25T15:07:11;13.05;;;12.25;;
5323;SDS011;2684;48.154;11.538;2022-07-25T15:09:41;12.77;;;11.88;;
5323;SDS011;2684;48.154;11.538;2022-07-25T15:12:09;12.00;;;11.30;;
5323;SDS011;2684;48.154;11.538;2022-07-25T15:14:39;11.82;;;11.23;;
5323;SDS011;2684;48.154;11.538;2022-07-25T15:17:11;12.68;;;11.82;;
5323;SDS011;2684;48.154;11.538;2022-07-25T15:19:45;11.48;;;10.85;;
5323;SDS011;2684;48.154;11.538;2022-07-25T15:22:14;12.07;;;11.43;;
5323;SDS011;2684;48.154;11.538;2022-07-25T15:24:45;10.98;;;10.40;;
5323;SDS011;2684;48.154;11.538;2022-07-25T15:27:27;11.52;;;10.93;;
5323;SDS011;2684;48.154;11.538;2022-07-25T15:29:59;12.35;;;11.65;;
5323;SDS011;2684;48.154;11.538;2022-07-25T15:32:40;11.27;;;10.57;;
5323;SDS011;2684;48.154;11.538;2022-07-25T15:35:09;11.18;;;10.57;;
5323;SDS011;2684;48.154;11.538;2022-07-25T15:37:42;11.90;;;11.30;;
5323;SDS011;2684;48.154;11.538;2022-07-25T15:40:13;11.82;;;11.02;;
5323;SDS011;2684;48.154;11.538;2022-07-25T15:42:41;12.20;;;11.50;;
5323;SDS011;2684;48.154;11.538;2022-07-25T15:45:09;11.45;;;10.85;;
5323;SDS011;2684;48.154;11.538;2022-07-25T15:47:50;11.55;;;10.95;;
5323;SDS011;2684;48.154;11.538;2022-07-25T15:50:39;11.57;;;10.98;;
5323;SDS011;2684;48.154;11.538;2022-07-25T15:53:10;11.15;;;10.55;;
5323;SDS011;2684;48.154;11.538;2022-07-25T16:34:50;16.02;;;14.73;;
5323;SDS011;2684;48.154;11.538;2022-07-25T16:37:20;15.70;;;14.50;;
5323;SDS011;2684;48.154;11.538;2022-07-25T16:39:54;15.93;;;14.30;;
5323;SDS011;2684;48.154;11.538;2022-07-25T16:42:36;15.05;;;13.85;;
5323;SDS011;2684;48.154;11.538;2022-07-25T16:45:09;15.15;;;13.98;;
5323;SDS011;2684;48.154;11.538;2022-07-25T16:47:42;16.40;;;15.00;;
5323;SDS011;2684;48.154;11.538;2022-07-25T16:53:14;17.30;;;15.80;;
5323;SDS011;2684;48.154;11.538;2022-07-25T16:55:53;15.20;;;13.98;;
5323;SDS011;2684;48.154;11.538;2022-07-25T16:58:23;15.60;;;14.40;;
5323;SDS011;2684;48.154;11.538;2022-07-25T17:00:51;15.85;;;14.65;;
5323;SDS011;2684;48.154;11.538;2022-07-25T17:03:20;16.35;;;15.05;;
5323;SDS011;2684;48.154;11.538;2022-07-25T17:05:51;16.45;;;15.05;;
5323;SDS011;2684;48.154;11.538;2022-07-25T17:08:19;17.00;;;15.40;;
5323;SDS011;2684;48.154;11.538;2022-07-25T17:10:47;16.35;;;15.05;;
5323;SDS011;2684;48.154;11.538;2022-07-25T17:13:14;17.17;;;15.68;;
5323;SDS011;2684;48.154;11.538;2022-07-25T17:15:48;17.55;;;16.00;;
5323;SDS011;2684;48.154;11.538;2022-07-25T17:33:53;16.08;;;14.80;;
5323;SDS011;2684;48.154;11.538;2022-07-25T17:36:20;16.23;;;14.93;;
5323;SDS011;2684;48.154;11.538;2022-07-25T17:38:48;16.67;;;15.38;;
5323;SDS011;2684;48.154;11.538;2022-07-25T17:41:15;17.15;;;15.73;;
5323;SDS011;2684;48.154;11.538;2022-07-25T17:43:43;15.55;;;14.35;;
5323;SDS011;2684;48.154;11.538;2022-07-25T17:46:10;16.15;;;14.95;;
5323;SDS011;2684;48.154;11.538;2022-07-25T17:48:38;16.48;;;15.02;;
5323;SDS011;2684;48.154;11.538;2022-07-25T17:51:09;16.23;;;14.93;;
5323;SDS011;2684;48.154;11.538;2022-07-25T17:53:37;16.38;;;15.07;;
5323;SDS011;2684;48.154;11.538;2022-07-25T17:56:06;16.88;;;15.40;;
5323;SDS011;2684;48.154;11.538;2022-07-25T17:58:38;17.48;;;15.95;;
5323;SDS011;2684;48.154;11.538;2022-07-25T18:01:06;16.63;;;15.32;;
5323;SDS011;2684;48.154;11.538;2022-07-25T18:03:36;18.30;;;16.45;;
5323;SDS011;2684;48.154;11.538;2022-07-25T18:06:04;17.10;;;15.30;;
5323;SDS011;2684;48.154;11.538;2022-07-25T18:08:33;17.08;;;15.77;;
5323;SDS011;2684;48.154;11.538;2022-07-25T18:16:09;17.77;;;16.27;;